Weather Data

Pearl Creek Farm: 8878 N Farm Road 75, Walnut Grove MO 65770

<== Previous Day (Monday 06 Jan 2014) | Next Day (Wednesday 08 Jan 2014) ==>

Summary Precipitation Data For Tuesday 07 January 2014

ElementValueUnits
Precipitation0"
New Snow Depth0"
New Snow Water Equivalent0"
Total Snow Depth5"
Total Snow Water Equivalent*0"
NotesWay too cold for any of this to melt, although there was a small amount of melting on our porch where direct sun and some heat from the house helped keep things a little warmer than elsewhere.
SourcePearl Creek Farm

* Total Snow Water Equivalent is not measured every day.

Summary Temperature Data For Tuesday 07 January 2014

ElementValueUnits
High Temperature38 oF
Low Temperature-9 oF
Average Temperature16 oF
High Humidity82 %
Low Humidity56 %
Average Humidity71 %
SourcePearl Creek Farm

Detail Temperature Data For Tuesday 07 January 2014

Date / TimeTemp (F)RH (%)Dew Pt (F)Report Date / TimeSource
2014-01-07 00:00:00 -9 75 -14.9 2014-02-09 14:43:36 Pearl Creek Farm
2014-01-07 00:30:00 -9 76 -14.6 2014-02-09 14:43:36 Pearl Creek Farm
2014-01-07 01:00:00 -9 75 -14.7 2014-02-09 14:43:36 Pearl Creek Farm
2014-01-07 01:30:00 -9 75 -14.7 2014-02-09 14:43:36 Pearl Creek Farm
2014-01-07 02:00:00 -9 76 -14.5 2014-02-09 14:43:36 Pearl Creek Farm
2014-01-07 02:30:00 -8 77 -13.2 2014-02-09 14:43:36 Pearl Creek Farm
2014-01-07 03:00:00 -8 77 -13.4 2014-02-09 14:43:36 Pearl Creek Farm
2014-01-07 03:30:00 -7 77 -12.4 2014-02-09 14:43:36 Pearl Creek Farm
2014-01-07 04:00:00 -7 77 -12.3 2014-02-09 14:43:36 Pearl Creek Farm
2014-01-07 04:30:00 -5 80 -9.7 2014-02-09 14:43:36 Pearl Creek Farm
2014-01-07 05:00:00 -4 80 -8.7 2014-02-09 14:43:36 Pearl Creek Farm
2014-01-07 05:30:00 -3 79 -7.9 2014-02-09 14:43:36 Pearl Creek Farm
2014-01-07 06:00:00 -3 80 -7.6 2014-02-09 14:43:36 Pearl Creek Farm
2014-01-07 06:30:00 0 82 -4.3 2014-02-09 14:43:36 Pearl Creek Farm
2014-01-07 07:00:00 2 82 -2.3 2014-02-09 14:43:36 Pearl Creek Farm
2014-01-07 07:30:00 4 81 -0.5 2014-02-09 14:43:36 Pearl Creek Farm
2014-01-07 08:00:00 6 80 1.2 2014-02-09 14:43:36 Pearl Creek Farm
2014-01-07 08:30:00 7 80 2.0 2014-02-09 14:43:36 Pearl Creek Farm
2014-01-07 09:00:00 12 77 6.2 2014-02-09 14:43:36 Pearl Creek Farm
2014-01-07 09:30:00 15 75 8.4 2014-02-09 14:43:36 Pearl Creek Farm
2014-01-07 10:00:00 17 73 9.9 2014-02-09 14:43:36 Pearl Creek Farm
2014-01-07 10:30:00 19 72 11.3 2014-02-09 14:43:36 Pearl Creek Farm
2014-01-07 11:00:00 22 69 13.3 2014-02-09 14:43:36 Pearl Creek Farm
2014-01-07 11:30:00 25 68 16.0 2014-02-09 14:43:36 Pearl Creek Farm
2014-01-07 12:00:00 28 67 18.3 2014-02-09 14:43:36 Pearl Creek Farm
2014-01-07 12:30:00 32 61 20.1 2014-02-09 14:43:36 Pearl Creek Farm
2014-01-07 13:00:00 34 57 20.4 2014-02-09 14:43:36 Pearl Creek Farm
2014-01-07 13:30:00 36 57 22.1 2014-02-09 14:43:36 Pearl Creek Farm
2014-01-07 14:00:00 37 56 22.6 2014-02-09 14:43:36 Pearl Creek Farm
2014-01-07 14:30:00 37 56 22.8 2014-02-09 14:43:36 Pearl Creek Farm
2014-01-07 15:00:00 38 56 23.5 2014-02-09 14:43:36 Pearl Creek Farm
2014-01-07 15:30:00 37 58 23.4 2014-02-09 14:43:36 Pearl Creek Farm
2014-01-07 16:00:00 36 58 22.7 2014-02-09 14:43:36 Pearl Creek Farm
2014-01-07 16:30:00 36 60 23.3 2014-02-09 14:43:36 Pearl Creek Farm
2014-01-07 17:00:00 34 62 22.2 2014-02-09 14:43:36 Pearl Creek Farm
2014-01-07 17:30:00 33 64 22.0 2014-02-09 14:43:36 Pearl Creek Farm
2014-01-07 18:00:00 32 64 21.2 2014-02-09 14:43:36 Pearl Creek Farm
2014-01-07 18:30:00 32 66 21.8 2014-02-09 14:43:36 Pearl Creek Farm
2014-01-07 19:00:00 31 66 20.8 2014-02-09 14:43:36 Pearl Creek Farm
2014-01-07 19:30:00 28 68 18.8 2014-02-09 14:43:36 Pearl Creek Farm
2014-01-07 20:00:00 25 72 17.3 2014-02-09 14:43:36 Pearl Creek Farm
2014-01-07 20:30:00 23 78 17.0 2014-02-09 14:43:36 Pearl Creek Farm
2014-01-07 21:00:00 22 79 16.5 2014-02-09 14:43:36 Pearl Creek Farm
2014-01-07 21:30:00 23 80 17.6 2014-02-09 14:43:36 Pearl Creek Farm
2014-01-07 22:00:00 25 76 18.5 2014-02-09 14:43:36 Pearl Creek Farm
2014-01-07 22:30:00 26 74 18.9 2014-02-09 14:43:36 Pearl Creek Farm
2014-01-07 23:00:00 26 74 18.7 2014-02-09 14:43:36 Pearl Creek Farm
2014-01-07 23:30:00 25 76 18.5 2014-02-09 14:43:36 Pearl Creek Farm

A total of 48 rows are displayed.